Time;durP1;ratioP1;P1;durP2;ratioP2;P2;SDS_P1;SDS_P2;PMS_P1;PMS_P2;Temp;Humidity;BMP_temperature;BMP_pressure;BME280_temperature;BME280_humidity;BME280_pressure;Samples;Min_cycle;Max_cycle;Signal;HPM_P1;HPM_P2
2023/05/22 00:00:07;;;;;;;24.45;14.75;;;;;;;16.41;100.00;101111.84;5018434;28;20046;-77
2023/05/22 00:02:41;;;;;;;22.67;14.52;;;;;;;16.42;100.00;101115.50;4986943;28;20065;-77
2023/05/22 00:05:17;;;;;;;21.67;14.45;;;;;;;16.40;100.00;101110.09;4977188;28;20025;-77
2023/05/22 00:07:42;;;;;;;22.25;14.77;;;;;;;16.39;100.00;101118.56;4998079;28;20039;-77
2023/05/22 00:10:08;;;;;;;19.25;14.00;;;;;;;16.37;100.00;101118.72;4988678;28;20123;-77
2023/05/22 00:12:34;;;;;;;20.90;14.50;;;;;;;16.34;100.00;101116.25;4975135;28;20038;-77
2023/05/22 00:15:00;;;;;;;20.10;15.05;;;;;;;16.35;100.00;101120.75;4979548;28;20041;-76
2023/05/22 00:17:25;;;;;;;22.13;14.75;;;;;;;16.31;100.00;101119.31;4999403;28;20045;-77
2023/05/22 00:19:52;;;;;;;20.65;14.73;;;;;;;16.26;100.00;101105.94;5005082;28;20027;-78
2023/05/22 00:22:18;;;;;;;24.38;16.35;;;;;;;16.26;100.00;101105.09;4978639;28;20036;-77
2023/05/22 00:24:44;;;;;;;21.70;15.25;;;;;;;16.26;100.00;101099.56;4994559;28;20038;-77
2023/05/22 00:27:10;;;;;;;21.38;14.68;;;;;;;16.25;100.00;101100.56;4975526;28;20019;-77
2023/05/22 00:29:36;;;;;;;21.95;15.15;;;;;;;16.27;100.00;101099.41;5012679;28;20039;-77
2023/05/22 00:32:01;;;;;;;19.45;15.43;;;;;;;16.17;100.00;101090.31;4983028;28;20042;-77
2023/05/22 00:34:26;;;;;;;23.23;15.55;;;;;;;16.26;100.00;101099.56;4995529;28;20520;-78
2023/05/22 00:36:52;;;;;;;25.00;15.30;;;;;;;16.13;100.00;101089.75;4988333;28;20030;-78
2023/05/22 00:39:17;;;;;;;24.20;15.23;;;;;;;16.10;100.00;101092.81;4977951;28;20061;-78
2023/05/22 00:41:43;;;;;;;21.30;16.05;;;;;;;16.09;100.00;101093.81;4975278;28;20046;-78
2023/05/22 00:44:09;;;;;;;24.02;15.60;;;;;;;16.05;100.00;101089.59;4959439;28;20066;-78
2023/05/22 00:46:35;;;;;;;22.95;16.45;;;;;;;16.13;100.00;101097.13;4982910;28;20098;-78
2023/05/22 00:49:00;;;;;;;24.63;16.48;;;;;;;16.00;100.00;101100.22;4985594;28;20063;-78
2023/05/22 00:51:26;;;;;;;26.35;15.85;;;;;;;15.98;100.00;101094.84;4967952;28;20022;-77
2023/05/22 00:53:53;;;;;;;22.50;16.38;;;;;;;15.92;100.00;101102.88;4984401;28;20038;-77
2023/05/22 00:56:20;;;;;;;24.70;16.10;;;;;;;15.93;100.00;101099.97;5003919;28;20034;-78
2023/05/22 00:58:46;;;;;;;23.00;15.95;;;;;;;15.85;100.00;101099.00;4990973;28;20042;-78
2023/05/22 01:01:12;;;;;;;23.05;15.20;;;;;;;15.77;100.00;101092.34;4959444;28;20062;-78
2023/05/22 01:03:43;;;;;;;21.33;15.23;;;;;;;15.74;100.00;101097.22;5007667;28;20019;-78
2023/05/22 01:06:20;;;;;;;23.90;15.73;;;;;;;15.77;100.00;101097.88;4990100;28;20035;-78
2023/05/22 01:08:46;;;;;;;22.50;15.63;;;;;;;15.73;100.00;101095.50;5009493;28;20038;-77
2023/05/22 01:11:50;;;;;;;21.70;16.05;;;;;;;15.75;100.00;101098.97;5006669;28;20031;-78
2023/05/22 01:14:23;;;;;;;21.83;15.73;;;;;;;15.68;100.00;101092.34;4954211;28;20055;-77
2023/05/22 01:16:58;;;;;;;;;;;;;;;15.65;100.00;101100.91;4958677;29;20112;-78
2023/05/22 01:19:33;;;;;;;25.25;14.98;;;;;;;15.65;100.00;101104.53;4978804;28;19910;-78
2023/05/22 01:22:11;;;;;;;22.77;15.52;;;;;;;15.65;100.00;101095.38;4988583;28;20022;-78
2023/05/22 01:24:40;;;;;;;21.33;15.10;;;;;;;15.61;100.00;101098.44;4988157;28;20015;-78
2023/05/22 01:27:44;;;;;;;20.90;15.10;;;;;;;15.57;100.00;101099.75;4987975;28;20083;-77
2023/05/22 01:30:37;;;;;;;26.80;15.57;;;;;;;15.53;100.00;101097.44;4975753;28;20027;-78
2023/05/22 01:33:05;;;;;;;29.73;15.93;;;;;;;15.57;100.00;101094.22;4990667;28;20053;-78
2023/05/22 01:35:33;;;;;;;25.65;16.40;;;;;;;15.48;100.00;101091.47;5009134;28;20575;-77
2023/05/22 01:38:00;;;;;;;25.30;17.25;;;;;;;15.47;100.00;101103.56;5000105;28;20054;-78
2023/05/22 01:40:27;;;;;;;22.85;16.60;;;;;;;15.48;100.00;101094.22;4979073;28;20034;-78
2023/05/22 01:42:52;;;;;;;25.25;15.68;;;;;;;15.44;100.00;101088.16;5002703;28;20029;-77
2023/05/22 01:45:20;;;;;;;21.45;15.52;;;;;;;15.46;100.00;101101.78;4977151;28;20058;-77
2023/05/22 01:47:45;;;;;;;24.60;15.65;;;;;;;15.41;100.00;101088.44;4986711;28;20038;-77
2023/05/22 01:50:11;;;;;;;27.40;16.27;;;;;;;15.45;100.00;101089.91;4991395;28;20053;-77
2023/05/22 01:52:59;;;;;;;26.00;16.83;;;;;;;15.43;100.00;101098.31;4953117;28;20051;-77
2023/05/22 01:55:35;;;;;;;26.00;16.88;;;;;;;15.38;100.00;101095.13;4999345;28;20022;-78
2023/05/22 01:58:30;;;;;;;29.23;16.60;;;;;;;15.26;100.00;101090.78;5012922;28;20015;-77
2023/05/22 02:00:58;;;;;;;26.83;17.02;;;;;;;15.21;100.00;101090.34;4988447;28;20026;-77
2023/05/22 02:03:29;;;;;;;29.08;17.15;;;;;;;15.27;100.00;101091.69;4977639;28;20031;-77
2023/05/22 02:05:58;;;;;;;30.38;17.73;;;;;;;15.24;100.00;101095.59;4993680;28;20022;-77
2023/05/22 02:08:25;;;;;;;25.90;18.10;;;;;;;15.14;100.00;101087.31;5010437;28;20157;-78
2023/05/22 02:10:54;;;;;;;27.17;17.25;;;;;;;15.18;100.00;101087.88;4991190;28;20042;-77
2023/05/22 02:13:21;;;;;;;24.10;17.50;;;;;;;15.16;100.00;101082.50;4994567;28;20030;-78
2023/05/22 02:15:47;;;;;;;22.88;16.13;;;;;;;15.16;100.00;101087.16;5007799;28;20417;-76
2023/05/22 02:18:13;;;;;;;25.40;16.35;;;;;;;15.08;100.00;101085.13;5009015;28;20034;-78
2023/05/22 02:20:40;;;;;;;26.83;17.23;;;;;;;15.09;100.00;101081.38;4990589;28;20058;-77
2023/05/22 02:23:05;;;;;;;25.35;17.02;;;;;;;15.05;100.00;101079.91;5002445;28;20086;-77
2023/05/22 02:25:31;;;;;;;32.83;17.52;;;;;;;14.96;100.00;101081.66;5000042;28;20038;-77
2023/05/22 02:27:56;;;;;;;27.08;17.38;;;;;;;14.98;100.00;101076.84;4981031;28;20035;-77
2023/05/22 02:30:22;;;;;;;28.20;18.10;;;;;;;14.91;100.00;101061.91;4984922;28;20063;-78
2023/05/22 02:32:47;;;;;;;34.42;17.83;;;;;;;14.91;100.00;101072.94;4962861;28;20073;-77
2023/05/22 02:35:13;;;;;;;29.92;17.88;;;;;;;14.86;100.00;101070.63;5004309;28;20101;-78
2023/05/22 02:37:38;;;;;;;27.83;18.25;;;;;;;14.87;100.00;101072.38;4988694;28;20058;-78
2023/05/22 02:40:08;;;;;;;23.50;18.00;;;;;;;14.94;100.00;101067.16;4993914;28;20041;-78
2023/05/22 02:42:34;;;;;;;25.05;17.40;;;;;;;14.85;100.00;101070.75;4975831;28;20099;-78
2023/05/22 02:45:00;;;;;;;30.60;18.33;;;;;;;14.89;100.00;101067.56;4987031;28;20173;-77
2023/05/22 02:47:25;;;;;;;27.58;18.80;;;;;;;14.82;100.00;101060.91;4971559;28;20074;-78
2023/05/22 02:49:51;;;;;;;27.65;17.85;;;;;;;14.86;100.00;101067.84;5001429;28;20146;-77
2023/05/22 02:52:17;;;;;;;30.30;19.35;;;;;;;14.82;100.00;101065.53;4967101;28;20141;-78
2023/05/22 02:54:43;;;;;;;30.77;19.55;;;;;;;14.86;100.00;101059.59;4987940;28;20034;-78
2023/05/22 02:57:08;;;;;;;28.83;18.88;;;;;;;14.87;100.00;101057.69;4992392;28;20034;-77
2023/05/22 02:59:35;;;;;;;27.15;18.15;;;;;;;14.81;100.00;101061.91;4992277;28;20038;-77
2023/05/22 03:02:01;;;;;;;30.00;19.33;;;;;;;14.73;100.00;101055.38;4966804;28;20087;-77
2023/05/22 03:04:28;;;;;;;30.90;19.45;;;;;;;14.70;100.00;101062.03;5014867;28;20060;-77
2023/05/22 03:06:54;;;;;;;30.48;18.75;;;;;;;14.74;100.00;101057.09;5007441;28;20042;-77
2023/05/22 03:09:19;;;;;;;27.98;18.95;;;;;;;14.67;100.00;101054.06;5018858;28;20046;-77
2023/05/22 03:11:45;;;;;;;29.80;19.50;;;;;;;14.67;100.00;101063.19;4980381;28;20478;-78
2023/05/22 03:14:11;;;;;;;31.35;19.42;;;;;;;14.65;100.00;101056.94;4948159;28;20107;-77
2023/05/22 03:16:36;;;;;;;27.58;20.05;;;;;;;14.61;100.00;101066.53;4957189;28;20111;-77
2023/05/22 03:19:10;;;;;;;29.63;19.55;;;;;;;14.71;100.00;101066.56;5001030;28;20055;-77
2023/05/22 03:21:36;;;;;;;28.48;19.15;;;;;;;14.66;100.00;101063.34;5020816;28;20015;-77
2023/05/22 03:24:01;;;;;;;27.90;19.30;;;;;;;14.64;100.00;101063.50;4994105;28;20098;-77
2023/05/22 03:26:27;;;;;;;30.25;19.50;;;;;;;14.68;100.00;101058.56;4972962;29;20046;-77
2023/05/22 03:28:53;;;;;;;33.65;19.83;;;;;;;14.65;100.00;101061.59;5013984;28;20059;-78
2023/05/22 03:31:19;;;;;;;35.72;19.15;;;;;;;14.52;100.00;101050.81;5003671;28;20049;-77
2023/05/22 03:33:44;;;;;;;32.33;20.08;;;;;;;14.59;100.00;101054.75;5015303;28;20047;-78
2023/05/22 03:36:11;;;;;;;27.73;19.10;;;;;;;14.52;100.00;101054.44;4997607;28;20119;-78
2023/05/22 03:38:36;;;;;;;32.30;19.35;;;;;;;14.66;100.00;101060.59;5004147;28;20042;-78
2023/05/22 03:41:02;;;;;;;30.83;19.25;;;;;;;14.56;100.00;101060.56;4953196;28;20051;-78
2023/05/22 03:43:27;;;;;;;35.00;21.48;;;;;;;14.56;100.00;101060.56;5024554;28;20038;-78
2023/05/22 03:45:53;;;;;;;31.02;20.55;;;;;;;14.56;100.00;101057.78;4988002;28;20046;-77
2023/05/22 03:48:19;;;;;;;40.20;19.40;;;;;;;14.51;100.00;101055.47;4980635;28;20062;-77
2023/05/22 03:50:44;;;;;;;30.70;19.95;;;;;;;14.54;100.00;101062.56;5008622;28;20117;-77
2023/05/22 03:53:13;;;;;;;32.00;20.25;;;;;;;14.50;100.00;101061.13;4988447;28;20094;-77
2023/05/22 03:55:38;;;;;;;32.67;19.90;;;;;;;14.53;100.00;101063.59;4997378;28;20053;-77
2023/05/22 03:58:03;;;;;;;36.00;20.42;;;;;;;14.55;100.00;101071.72;5017601;28;20023;-78
2023/05/22 04:00:30;;;;;;;33.22;20.63;;;;;;;14.58;100.00;101065.94;4979253;28;20038;-77
2023/05/22 04:02:57;;;;;;;26.17;19.13;;;;;;;14.58;100.00;101068.69;4983131;28;20106;-78
2023/05/22 04:05:23;;;;;;;37.60;21.80;;;;;;;14.56;100.00;101066.06;5000049;28;20038;-79
2023/05/22 04:07:49;;;;;;;32.72;20.88;;;;;;;14.66;100.00;101068.88;4980216;28;20047;-80
2023/05/22 04:10:14;;;;;;;35.05;22.45;;;;;;;14.61;100.00;101066.53;5002361;28;20038;-80
2023/05/22 04:12:40;;;;;;;35.17;21.73;;;;;;;14.64;100.00;101068.13;4965008;28;20026;-80
2023/05/22 04:15:06;;;;;;;39.50;22.50;;;;;;;14.66;100.00;101066.13;4946500;28;20062;-80
2023/05/22 04:17:32;;;;;;;39.95;22.20;;;;;;;14.65;100.00;101067.13;4950581;28;20019;-79
2023/05/22 04:19:59;;;;;;;34.15;21.65;;;;;;;14.72;100.00;101068.28;4979656;28;20058;-82
2023/05/22 04:22:26;;;;;;;40.25;23.17;;;;;;;14.72;100.00;101068.28;4977100;23;20053;-82
2023/05/22 04:24:52;;;;;;;41.72;23.25;;;;;;;14.72;100.00;101061.91;4960819;28;20074;-80
2023/05/22 04:27:21;;;;;;;43.58;23.33;;;;;;;14.80;100.00;101075.84;4937177;28;20042;-82
2023/05/22 04:29:49;;;;;;;37.50;23.80;;;;;;;14.74;100.00;101077.28;4934722;28;20242;-81
2023/05/22 04:34:49;;;;;;;45.90;23.38;;;;;;;14.80;100.00;101076.69;5704628;23;20095;-79
2023/05/22 04:37:17;;;;;;;41.38;23.83;;;;;;;14.83;100.00;101072.78;5095247;23;20052;-79
2023/05/22 04:39:44;;;;;;;41.50;24.65;;;;;;;14.88;100.00;101070.47;4945370;29;20047;-79
2023/05/22 04:42:13;;;;;;;40.17;23.13;;;;;;;14.89;100.00;101073.09;4931635;29;20036;-81
2023/05/22 04:44:39;;;;;;;39.47;24.00;;;;;;;14.94;100.00;101080.03;4936548;29;20071;-81
2023/05/22 04:47:06;;;;;;;49.05;25.40;;;;;;;14.92;100.00;101077.47;4941349;29;20036;-82
2023/05/22 04:49:32;;;;;;;43.25;25.10;;;;;;;14.82;100.00;101071.94;4924647;29;20091;-81
2023/05/22 04:51:58;;;;;;;50.63;26.15;;;;;;;14.80;100.00;101068.44;4936844;29;20036;-80
2023/05/22 04:54:23;;;;;;;43.30;25.27;;;;;;;14.94;100.00;101074.53;4929919;29;20075;-80
2023/05/22 04:56:50;;;;;;;43.50;25.73;;;;;;;14.98;100.00;101081.50;4925343;29;20544;-78
2023/05/22 04:59:18;;;;;;;42.83;24.17;;;;;;;14.76;100.00;101066.09;4938229;29;20028;-79
2023/05/22 05:01:44;;;;;;;43.42;26.85;;;;;;;14.85;100.00;101081.78;4938222;29;20040;-79
2023/05/22 05:04:10;;;;;;;46.97;26.55;;;;;;;14.84;100.00;101082.81;4924472;29;20040;-78
2023/05/22 05:06:36;;;;;;;46.47;26.40;;;;;;;14.93;100.00;101087.44;4925511;29;20483;-79
2023/05/22 05:09:05;;;;;;;47.00;27.33;;;;;;;14.87;100.00;101086.16;4909348;29;20032;-78
2023/05/22 05:11:31;;;;;;;45.67;27.48;;;;;;;14.85;100.00;101090.91;4925477;29;20043;-78
2023/05/22 05:13:56;;;;;;;44.90;26.60;;;;;;;14.78;100.00;101086.13;4934527;29;20047;-78
2023/05/22 05:16:23;;;;;;;45.53;28.05;;;;;;;14.89;100.00;101092.38;4891974;29;20047;-78
2023/05/22 05:18:50;;;;;;;45.25;27.92;;;;;;;14.95;100.00;101082.66;4918104;29;20095;-79
2023/05/22 05:21:16;;;;;;;44.45;26.95;;;;;;;14.92;100.00;101091.25;4922876;29;20039;-79
2023/05/22 05:23:42;;;;;;;44.55;27.90;;;;;;;14.75;100.00;101095.56;4921256;29;20042;-79
2023/05/22 05:26:08;;;;;;;53.03;29.17;;;;;;;14.78;100.00;101108.19;4940964;29;20495;-78
2023/05/22 05:28:33;;;;;;;48.70;28.63;;;;;;;14.65;100.00;101100.19;4913087;29;20032;-79
2023/05/22 05:30:59;;;;;;;50.88;27.90;;;;;;;14.73;100.00;101108.63;4932900;29;20428;-79
2023/05/22 05:33:24;;;;;;;49.15;28.33;;;;;;;14.74;100.00;101099.34;4923500;29;20452;-79
2023/05/22 05:35:51;;;;;;;46.63;28.55;;;;;;;14.69;100.00;101102.53;4907600;29;20043;-79
2023/05/22 05:38:17;;;;;;;51.10;30.15;;;;;;;14.66;100.00;101102.81;4908290;29;20412;-79
2023/05/22 05:40:46;;;;;;;52.65;29.17;;;;;;;14.52;100.00;101090.25;4939297;29;20031;-79
2023/05/22 05:43:15;;;;;;;56.50;30.88;;;;;;;14.55;100.00;101110.28;4939576;29;20036;-79
2023/05/22 05:45:42;;;;;;;53.40;30.92;;;;;;;14.57;100.00;101111.00;4919361;29;20071;-81
2023/05/22 05:48:07;;;;;;;56.25;29.95;;;;;;;14.64;100.00;101110.34;4941149;29;20036;-78
2023/05/22 05:50:33;;;;;;;58.60;31.58;;;;;;;14.57;100.00;101100.00;4902849;29;20095;-77
2023/05/22 05:52:59;;;;;;;50.60;30.13;;;;;;;14.58;100.00;101099.00;4918466;29;20071;-77
2023/05/22 05:55:24;;;;;;;57.00;29.90;;;;;;;14.61;100.00;101104.22;4925017;29;20078;-78
2023/05/22 05:57:51;;;;;;;58.58;30.65;;;;;;;14.59;100.00;101118.13;4903077;29;20043;-77
2023/05/22 06:00:17;;;;;;;51.85;30.45;;;;;;;14.45;100.00;101118.53;4926499;29;20040;-77
2023/05/22 06:02:42;;;;;;;58.35;30.10;;;;;;;14.45;100.00;101121.28;4944810;29;20039;-78
2023/05/22 06:05:08;;;;;;;54.53;31.48;;;;;;;14.43;100.00;101118.66;4941612;29;20107;-78
2023/05/22 06:07:36;;;;;;;55.13;31.58;;;;;;;14.50;100.00;101114.31;4954176;29;20034;-78
2023/05/22 06:10:06;;;;;;;51.65;32.03;;;;;;;14.61;100.00;101118.91;4936412;29;20034;-78
2023/05/22 06:12:31;;;;;;;54.33;29.85;;;;;;;14.65;100.00;101122.22;4956310;29;20044;-79
2023/05/22 06:14:57;;;;;;;45.60;29.17;;;;;;;14.63;100.00;101127.03;4959243;29;20039;-79
2023/05/22 06:17:23;;;;;;;45.72;27.92;;;;;;;14.48;100.00;101121.00;4940817;29;20028;-79
2023/05/22 06:19:49;;;;;;;50.13;28.80;;;;;;;14.70;100.00;101134.56;4939390;29;20048;-78
2023/05/22 06:22:14;;;;;;;47.58;26.55;;;;;;;14.73;100.00;101127.91;4944469;29;20023;-80
2023/05/22 06:24:39;;;;;;;43.75;27.50;;;;;;;14.53;100.00;101135.22;4944836;29;20059;-80
2023/05/22 06:27:05;;;;;;;43.38;27.15;;;;;;;14.73;100.00;101129.81;4927955;29;20087;-79
2023/05/22 06:29:34;;;;;;;47.63;28.98;;;;;;;14.76;100.00;101129.50;4913857;29;20315;-80
2023/05/22 06:31:59;;;;;;;54.03;29.52;;;;;;;14.85;100.00;101129.50;4945125;29;20048;-80
2023/05/22 06:34:26;;;;;;;58.67;30.48;;;;;;;14.86;100.00;101138.69;5070935;24;20034;-80
2023/05/22 06:36:52;;;;;;;47.75;28.92;;;;;;;14.93;100.00;101138.97;5034361;23;20057;-80
2023/05/22 06:39:18;;;;;;;48.72;29.05;;;;;;;15.04;100.00;101141.59;4970454;28;20026;-80
2023/05/22 06:41:44;;;;;;;47.72;28.75;;;;;;;15.01;100.00;101134.47;4998558;28;20043;-80
2023/05/22 06:44:11;;;;;;;47.60;28.73;;;;;;;15.04;100.00;101152.63;4999015;28;20022;-80
2023/05/22 06:46:36;;;;;;;49.53;28.90;;;;;;;15.10;100.00;101151.19;4973583;28;20026;-81
2023/05/22 06:49:02;;;;;;;51.45;29.52;;;;;;;15.22;100.00;101161.06;4985389;28;20126;-80
2023/05/22 06:51:28;;;;;;;53.00;29.17;;;;;;;15.02;100.00;101165.66;4968557;28;20025;-78
2023/05/22 06:53:53;;;;;;;56.72;29.20;;;;;;;15.10;100.00;101167.72;4962813;28;20023;-79
2023/05/22 06:56:19;;;;;;;57.97;29.77;;;;;;;15.17;100.00;101172.53;5005138;28;20068;-78
2023/05/22 06:58:45;;;;;;;61.50;30.45;;;;;;;15.30;100.00;101179.63;4992549;28;20039;-79
2023/05/22 07:01:16;;;;;;;56.67;29.55;;;;;;;15.30;100.00;101182.41;4993712;28;20034;-81
2023/05/22 07:03:41;;;;;;;59.10;30.77;;;;;;;15.22;100.00;101181.25;5009501;28;20077;-81
2023/05/22 07:06:10;;;;;;;60.35;30.08;;;;;;;15.28;100.00;101181.69;4997434;28;20046;-79
2023/05/22 07:08:36;;;;;;;59.03;29.90;;;;;;;15.36;100.00;101177.16;4979785;28;20025;-79
2023/05/22 07:11:05;;;;;;;55.53;31.83;;;;;;;15.32;100.00;101178.50;4993360;28;20023;-80
2023/05/22 07:13:31;;;;;;;67.07;31.23;;;;;;;15.44;100.00;101176.44;4999555;28;20026;-80
2023/05/22 07:15:56;;;;;;;53.60;29.55;;;;;;;15.41;100.00;101179.50;5002365;28;20106;-80
2023/05/22 07:18:22;;;;;;;52.55;29.25;;;;;;;15.46;100.00;101188.22;4975191;28;20032;-79
2023/05/22 07:20:48;;;;;;;51.15;29.05;;;;;;;15.58;100.00;101188.97;4963831;28;20042;-79
2023/05/22 07:23:13;;;;;;;58.55;30.63;;;;;;;15.58;100.00;101192.56;4999957;28;20042;-79
2023/05/22 07:25:39;;;;;;;58.72;31.27;;;;;;;15.36;100.00;101195.63;4980829;28;20089;-79
2023/05/22 07:28:07;;;;;;;56.53;30.30;;;;;;;15.43;100.00;101194.91;5004457;28;20041;-79
2023/05/22 07:33:08;;;;;;;61.50;30.58;;;;;;;15.55;100.00;101200.28;5203445;23;20043;-80
2023/05/22 07:35:33;;;;;;;51.45;30.00;;;;;;;15.62;100.00;101199.53;4967723;28;20054;-80
2023/05/22 07:37:59;;;;;;;57.10;30.95;;;;;;;15.58;100.00;101202.75;4951459;28;20095;-79
2023/05/22 07:40:25;;;;;;;54.65;30.63;;;;;;;15.61;100.00;101195.06;4949650;28;20042;-79
2023/05/22 07:42:50;;;;;;;57.38;30.08;;;;;;;15.74;100.00;101203.03;5299766;23;20035;-79
2023/05/22 07:45:15;;;;;;;56.15;31.10;;;;;;;15.89;100.00;101203.47;4948834;28;20312;-79
2023/05/22 07:47:41;;;;;;;62.13;29.30;;;;;;;15.80;100.00;101188.66;4974948;28;20110;-79
2023/05/22 07:50:07;;;;;;;51.63;30.27;;;;;;;15.84;100.00;101193.88;4945935;28;20090;-78
2023/05/22 07:52:32;;;;;;;59.97;31.20;;;;;;;15.86;100.00;101200.16;4976875;28;20019;-79
2023/05/22 07:54:58;;;;;;;56.20;31.63;;;;;;;15.93;100.00;101198.53;4927636;28;20034;-79
2023/05/22 07:57:23;;;;;;;52.95;31.13;;;;;;;15.92;100.00;101205.97;4958050;28;20070;-79
2023/05/22 07:59:49;;;;;;;66.05;31.65;;;;;;;15.96;100.00;101204.63;4931636;29;20019;-79
2023/05/22 08:02:17;;;;;;;61.85;31.10;;;;;;;15.92;100.00;101200.44;4976833;28;20031;-79
2023/05/22 08:04:43;;;;;;;66.88;33.05;;;;;;;16.00;100.00;101205.19;4979424;28;20039;-78
2023/05/22 08:07:09;;;;;;;65.55;33.08;;;;;;;16.03;100.00;101204.03;4947000;28;20026;-78
2023/05/22 08:14:45;;;;;;;59.10;31.63;;;;;;;16.27;100.00;101212.69;5298396;23;20046;-79
2023/05/22 08:17:13;;;;;;;57.80;32.65;;;;;;;16.36;100.00;101210.91;5000315;28;20073;-79
2023/05/22 08:19:39;;;;;;;63.78;31.70;;;;;;;16.41;100.00;101208.56;4984683;28;20026;-79
2023/05/22 08:22:04;;;;;;;57.47;32.67;;;;;;;16.51;100.00;101203.00;4992439;28;20626;-79
2023/05/22 08:24:30;;;;;;;66.68;32.47;;;;;;;16.52;100.00;101207.53;4999666;28;20034;-79
2023/05/22 08:26:57;;;;;;;56.03;32.00;;;;;;;16.57;100.00;101199.63;4985554;28;20023;-79
2023/05/22 08:29:23;;;;;;;66.40;31.10;;;;;;;16.72;100.00;101195.38;4984697;28;20048;-79
2023/05/22 08:34:24;;;;;;;56.25;30.90;;;;;;;16.86;100.00;101207.81;5051402;23;20062;-79
2023/05/22 08:36:49;;;;;;;50.30;28.30;;;;;;;17.16;100.00;101202.13;4930084;28;20042;-81
2023/05/22 08:44:25;;;;;;;55.42;29.85;;;;;;;17.56;100.00;101201.66;1005585;23;20311;-83
2023/05/22 08:46:52;;;;;;;53.95;29.20;;;;;;;17.71;100.00;101196.44;4961541;28;20074;-78
2023/05/22 08:49:20;;;;;;;67.68;29.92;;;;;;;17.86;100.00;101199.50;4978936;28;20098;-79
2023/05/22 08:51:47;;;;;;;88.47;28.60;;;;;;;18.09;100.00;101204.56;5002507;28;20094;-79
2023/05/22 08:54:14;;;;;;;53.65;29.67;;;;;;;18.04;100.00;101199.50;4975433;28;20060;-79
2023/05/22 08:56:40;;;;;;;49.67;28.98;;;;;;;18.29;100.00;101199.66;4967002;28;20034;-79
2023/05/22 08:59:06;;;;;;;49.17;28.48;;;;;;;18.14;100.00;101200.25;4949374;28;20036;-79
2023/05/22 09:01:32;;;;;;;47.45;28.17;;;;;;;18.37;100.00;101194.16;4969165;28;20026;-80
2023/05/22 09:04:01;;;;;;;62.67;29.35;;;;;;;18.54;100.00;101198.78;4987901;28;20022;-81
2023/05/22 09:49:41;;;;;;;57.05;31.30;;;;;;;20.80;100.00;101188.34;5019998;23;20049;-78
2023/05/22 09:52:08;;;;;;;52.65;29.75;;;;;;;20.95;100.00;101185.66;4997037;28;20030;-78
2023/05/22 09:54:39;;;;;;;57.80;31.92;;;;;;;20.88;100.00;101190.25;5004365;28;20058;-78
2023/05/22 09:57:07;;;;;;;55.13;31.33;;;;;;;21.08;100.00;101180.38;4970700;28;20046;-79
2023/05/22 09:59:37;;;;;;;51.67;31.42;;;;;;;21.51;100.00;101190.22;4988584;28;20019;-79
2023/05/22 10:09:59;;;;;;;50.67;29.13;;;;;;;22.63;100.00;101186.72;4997227;23;20043;-82
2023/05/22 10:12:30;;;;;;;48.10;28.55;;;;;;;22.78;100.00;101186.75;4968145;28;20034;-82
2023/05/22 10:14:56;;;;;;;43.13;28.25;;;;;;;22.54;100.00;101189.63;4985172;28;20118;-82
2023/05/22 10:17:22;;;;;;;42.83;27.70;;;;;;;23.00;100.00;101179.28;4970345;28;20394;-82
2023/05/22 10:19:49;;;;;;;40.58;27.75;;;;;;;22.69;100.00;101189.63;4968209;28;20026;-83
2023/05/22 10:22:19;;;;;;;43.17;29.17;;;;;;;22.82;100.00;101194.53;4983043;28;20379;-82
2023/05/22 10:24:47;;;;;;;45.95;29.55;;;;;;;22.57;100.00;101197.63;4950697;28;20031;-82
2023/05/22 10:27:13;;;;;;;44.55;26.83;;;;;;;22.76;100.00;101181.38;4948448;28;20457;-81
2023/05/22 10:29:50;;;;;;;42.00;28.15;;;;;;;22.87;100.00;101185.56;4995201;28;20058;-81
2023/05/22 10:32:43;;;;;;;50.03;28.30;;;;;;;23.16;100.00;101178.25;4978228;28;20030;-81
2023/05/22 10:35:35;;;;;;;46.22;28.88;;;;;;;23.28;100.00;101174.72;4971919;28;20034;-81
2023/05/22 10:38:12;;;;;;;44.08;27.20;;;;;;;23.19;100.00;101180.63;4988186;28;20536;-81
2023/05/22 10:40:40;;;;;;;37.55;26.30;;;;;;;23.62;100.00;101178.72;4967303;28;20126;-81
2023/05/22 10:43:06;;;;;;;41.33;26.45;;;;;;;24.21;100.00;101179.50;4941612;29;20513;-83
2023/05/22 10:45:32;;;;;;;40.92;28.20;;;;;;;23.28;100.00;101168.25;4957003;28;20043;-82
2023/05/22 10:48:06;;;;;;;44.97;29.15;;;;;;;23.64;100.00;101167.34;4957156;28;20537;-82
2023/05/22 10:50:32;;;;;;;47.88;30.35;;;;;;;23.91;100.00;101170.41;4952424;28;20035;-82
2023/05/22 10:53:31;;;;;;;56.13;31.73;;;;;;;23.73;100.00;101170.88;4949536;28;20039;-82
2023/05/22 10:56:01;;;;;;;45.92;29.90;;;;;;;23.86;100.00;101171.03;4955988;28;20050;-82
2023/05/22 10:58:32;;;;;;;49.60;29.73;;;;;;;24.14;100.00;101164.59;4968797;28;20046;-83
2023/05/22 11:01:15;;;;;;;46.95;29.90;;;;;;;23.39;100.00;101167.75;4971448;28;20048;-82
2023/05/22 11:03:59;;;;;;;57.15;32.85;;;;;;;23.21;100.00;101173.78;4956430;29;20063;-82
2023/05/22 11:06:37;;;;;;;61.47;34.45;;;;;;;23.67;100.00;101164.16;4959288;28;20042;-81
2023/05/22 11:09:40;;;;;;;58.85;33.72;;;;;;;23.84;100.00;101165.66;4969921;28;20056;-81
2023/05/22 11:12:25;;;;;;;;;;;;;;;23.54;100.00;101155.66;4942967;29;20031;-81
2023/05/22 11:15:05;;;;;;;60.80;33.28;;;;;;;23.16;100.00;101155.88;4958372;29;19914;-81
2023/05/22 11:17:32;;;;;;;54.08;32.33;;;;;;;23.34;100.00;101147.91;4973073;28;20356;-80
2023/05/22 11:20:04;;;;;;;53.17;32.40;;;;;;;23.51;100.00;101153.25;4975594;28;20063;-81
2023/05/22 11:22:43;;;;;;;52.25;30.13;;;;;;;23.09;100.00;101148.28;4944664;29;20099;-82
2023/05/22 11:25:19;;;;;;;97.90;31.65;;;;;;;23.49;100.00;101147.84;4960926;29;20510;-80
2023/05/22 11:27:47;;;;;;;58.35;32.35;;;;;;;23.87;100.00;101141.97;4976018;28;20028;-81
2023/05/22 11:30:13;;;;;;;41.00;25.17;;;;;;;24.32;100.00;101152.88;4942690;29;20068;-82
2023/05/22 11:32:44;;;;;;;40.90;27.30;;;;;;;24.21;100.00;101149.56;4920361;29;20043;-82
2023/05/22 11:35:14;;;;;;;47.13;29.08;;;;;;;23.50;100.00;101149.59;4981790;28;20027;-80
2023/05/22 11:37:40;;;;;;;46.65;29.35;;;;;;;23.23;100.00;101157.66;4969305;28;20038;-82
2023/05/22 11:40:06;;;;;;;52.05;29.25;;;;;;;23.59;100.00;101145.56;4955444;28;20041;-82
2023/05/22 11:42:32;;;;;;;46.60;27.90;;;;;;;23.99;100.00;101150.69;4953737;29;20054;-78
2023/05/22 11:44:58;;;;;;;46.28;28.50;;;;;;;23.59;100.00;101153.09;4967381;28;20031;-80
2023/05/22 11:47:26;;;;;;;44.88;28.92;;;;;;;24.21;100.00;101157.09;4954585;28;20427;-79
2023/05/22 11:49:53;;;;;;;43.63;29.48;;;;;;;24.30;100.00;101144.69;4937885;29;20038;-79
2023/05/22 11:52:18;;;;;;;45.75;27.52;;;;;;;24.38;100.00;101146.44;4966575;28;20035;-79
2023/05/22 11:54:46;;;;;;;44.13;26.95;;;;;;;24.20;100.00;101145.06;4966300;28;20569;-79
2023/05/22 11:57:13;;;;;;;40.33;28.33;;;;;;;23.58;100.00;101141.06;4954141;28;20028;-80
2023/05/22 11:59:38;;;;;;;47.28;28.00;;;;;;;24.29;100.00;101145.75;4954803;29;20023;-79
2023/05/22 12:02:06;;;;;;;44.47;27.15;;;;;;;24.38;100.00;101140.84;4954356;29;20312;-80
2023/05/22 12:04:32;;;;;;;44.35;27.65;;;;;;;24.12;100.00;101122.81;4953290;29;20051;-79
2023/05/22 12:06:57;;;;;;;44.45;27.10;;;;;;;24.02;100.00;101136.28;4937969;29;20035;-80
2023/05/22 12:09:23;;;;;;;42.45;26.20;;;;;;;24.30;100.00;101130.69;4967738;28;20043;-80
2023/05/22 12:11:49;;;;;;;43.85;29.25;;;;;;;24.31;99.89;101139.94;4954555;29;20126;-80
2023/05/22 12:14:14;;;;;;;42.20;26.48;;;;;;;24.02;100.00;101130.69;4934748;29;20049;-79